sensor_id;sensor_type;location;lat;lon;timestamp;temperature;humidity
64226;DHT22;50545;56.064;26.178;2023-06-10T00:02:25;8.70;81.80
64226;DHT22;50545;56.064;26.178;2023-06-10T00:04:53;8.70;82.60
64226;DHT22;50545;56.064;26.178;2023-06-10T00:07:20;8.70;82.50
64226;DHT22;50545;56.064;26.178;2023-06-10T00:09:48;8.70;82.50
64226;DHT22;50545;56.064;26.178;2023-06-10T00:12:15;8.70;82.90
64226;DHT22;50545;56.064;26.178;2023-06-10T00:14:43;8.60;83.40
64226;DHT22;50545;56.064;26.178;2023-06-10T00:17:11;8.60;83.50
64226;DHT22;50545;56.064;26.178;2023-06-10T00:19:38;8.50;83.70
64226;DHT22;50545;56.064;26.178;2023-06-10T00:22:08;8.50;83.90
64226;DHT22;50545;56.064;26.178;2023-06-10T00:24:38;8.40;84.40
64226;DHT22;50545;56.064;26.178;2023-06-10T00:27:06;8.40;84.70
64226;DHT22;50545;56.064;26.178;2023-06-10T00:29:34;8.30;84.70
64226;DHT22;50545;56.064;26.178;2023-06-10T00:32:02;8.20;85.60
64226;DHT22;50545;56.064;26.178;2023-06-10T00:34:29;8.20;85.90
64226;DHT22;50545;56.064;26.178;2023-06-10T00:36:57;8.20;87.70
64226;DHT22;50545;56.064;26.178;2023-06-10T00:39:24;8.10;89.00
64226;DHT22;50545;56.064;26.178;2023-06-10T00:41:51;8.00;89.10
64226;DHT22;50545;56.064;26.178;2023-06-10T00:44:18;7.90;90.20
64226;DHT22;50545;56.064;26.178;2023-06-10T00:46:46;7.80;90.20
64226;DHT22;50545;56.064;26.178;2023-06-10T00:49:13;7.70;90.80
64226;DHT22;50545;56.064;26.178;2023-06-10T00:51:41;7.60;91.40
64226;DHT22;50545;56.064;26.178;2023-06-10T00:54:08;7.50;91.80
64226;DHT22;50545;56.064;26.178;2023-06-10T00:56:36;7.50;92.30
64226;DHT22;50545;56.064;26.178;2023-06-10T00:59:03;7.40;92.80
64226;DHT22;50545;56.064;26.178;2023-06-10T01:01:31;7.40;92.80
64226;DHT22;50545;56.064;26.178;2023-06-10T01:03:59;7.30;92.90
64226;DHT22;50545;56.064;26.178;2023-06-10T01:12:35;7.10;93.80
64226;DHT22;50545;56.064;26.178;2023-06-10T01:15:06;7.10;93.70
64226;DHT22;50545;56.064;26.178;2023-06-10T01:17:55;7.00;94.00
64226;DHT22;50545;56.064;26.178;2023-06-10T01:20:26;6.90;94.30
64226;DHT22;50545;56.064;26.178;2023-06-10T01:22:57;6.90;94.40
64226;DHT22;50545;56.064;26.178;2023-06-10T01:25:26;6.80;94.60
64226;DHT22;50545;56.064;26.178;2023-06-10T01:30:29;6.80;95.00
64226;DHT22;50545;56.064;26.178;2023-06-10T01:32:59;6.70;95.20
64226;DHT22;50545;56.064;26.178;2023-06-10T01:35:27;6.70;95.50
64226;DHT22;50545;56.064;26.178;2023-06-10T01:37:57;6.80;95.50
64226;DHT22;50545;56.064;26.178;2023-06-10T01:40:25;6.70;95.60
64226;DHT22;50545;56.064;26.178;2023-06-10T01:42:53;6.70;95.70
64226;DHT22;50545;56.064;26.178;2023-06-10T01:45:20;6.70;96.20
64226;DHT22;50545;56.064;26.178;2023-06-10T01:47:48;6.60;96.20
64226;DHT22;50545;56.064;26.178;2023-06-10T01:50:15;6.60;96.20
64226;DHT22;50545;56.064;26.178;2023-06-10T01:52:45;6.60;96.30
64226;DHT22;50545;56.064;26.178;2023-06-10T01:55:12;6.60;96.80
64226;DHT22;50545;56.064;26.178;2023-06-10T01:57:39;6.60;97.00
64226;DHT22;50545;56.064;26.178;2023-06-10T02:00:07;6.60;97.10
64226;DHT22;50545;56.064;26.178;2023-06-10T02:02:35;6.60;97.10
64226;DHT22;50545;56.064;26.178;2023-06-10T02:05:03;6.50;97.10
64226;DHT22;50545;56.064;26.178;2023-06-10T02:07:30;6.50;97.40
64226;DHT22;50545;56.064;26.178;2023-06-10T02:09:57;6.50;97.60
64226;DHT22;50545;56.064;26.178;2023-06-10T02:12:25;6.50;97.70
64226;DHT22;50545;56.064;26.178;2023-06-10T02:14:52;6.50;98.10
64226;DHT22;50545;56.064;26.178;2023-06-10T02:17:20;6.50;98.40
64226;DHT22;50545;56.064;26.178;2023-06-10T02:19:47;6.50;98.50
64226;DHT22;50545;56.064;26.178;2023-06-10T02:22:23;6.50;98.30
64226;DHT22;50545;56.064;26.178;2023-06-10T02:24:50;6.50;98.20
64226;DHT22;50545;56.064;26.178;2023-06-10T02:27:18;6.50;98.20
64226;DHT22;50545;56.064;26.178;2023-06-10T02:29:45;6.50;98.20
64226;DHT22;50545;56.064;26.178;2023-06-10T02:32:12;6.50;98.20
64226;DHT22;50545;56.064;26.178;2023-06-10T02:34:40;6.50;98.30
64226;DHT22;50545;56.064;26.178;2023-06-10T02:37:07;6.60;98.40
64226;DHT22;50545;56.064;26.178;2023-06-10T02:39:34;6.60;98.40
64226;DHT22;50545;56.064;26.178;2023-06-10T02:42:02;6.60;98.40
64226;DHT22;50545;56.064;26.178;2023-06-10T02:44:29;6.60;98.40
64226;DHT22;50545;56.064;26.178;2023-06-10T02:46:56;6.70;98.50
64226;DHT22;50545;56.064;26.178;2023-06-10T02:49:23;6.70;98.40
64226;DHT22;50545;56.064;26.178;2023-06-10T02:51:51;6.70;98.30
64226;DHT22;50545;56.064;26.178;2023-06-10T02:54:20;6.80;98.30
64226;DHT22;50545;56.064;26.178;2023-06-10T02:56:48;6.80;98.20
64226;DHT22;50545;56.064;26.178;2023-06-10T02:59:15;6.90;98.10
64226;DHT22;50545;56.064;26.178;2023-06-10T03:01:42;6.90;97.90
64226;DHT22;50545;56.064;26.178;2023-06-10T03:04:10;7.00;97.80
64226;DHT22;50545;56.064;26.178;2023-06-10T03:06:40;7.00;97.70
64226;DHT22;50545;56.064;26.178;2023-06-10T03:09:12;7.10;97.60
64226;DHT22;50545;56.064;26.178;2023-06-10T03:11:40;7.20;97.40
64226;DHT22;50545;56.064;26.178;2023-06-10T03:14:08;7.30;97.20
64226;DHT22;50545;56.064;26.178;2023-06-10T03:16:35;7.40;96.80
64226;DHT22;50545;56.064;26.178;2023-06-10T03:19:02;7.50;96.80
64226;DHT22;50545;56.064;26.178;2023-06-10T03:21:30;7.60;96.70
64226;DHT22;50545;56.064;26.178;2023-06-10T03:23:57;7.60;96.80
64226;DHT22;50545;56.064;26.178;2023-06-10T03:26:26;7.70;96.60
64226;DHT22;50545;56.064;26.178;2023-06-10T03:28:54;7.80;96.40
64226;DHT22;50545;56.064;26.178;2023-06-10T03:31:21;7.90;96.50
64226;DHT22;50545;56.064;26.178;2023-06-10T03:33:48;7.90;96.60
64226;DHT22;50545;56.064;26.178;2023-06-10T03:36:16;8.00;96.80
64226;DHT22;50545;56.064;26.178;2023-06-10T03:38:43;8.10;97.00
64226;DHT22;50545;56.064;26.178;2023-06-10T03:41:10;8.20;96.80
64226;DHT22;50545;56.064;26.178;2023-06-10T03:43:37;8.30;96.00
64226;DHT22;50545;56.064;26.178;2023-06-10T03:46:07;8.50;95.70
64226;DHT22;50545;56.064;26.178;2023-06-10T03:48:35;8.60;96.10
64226;DHT22;50545;56.064;26.178;2023-06-10T03:51:02;8.70;95.70
64226;DHT22;50545;56.064;26.178;2023-06-10T03:53:29;8.80;94.80
64226;DHT22;50545;56.064;26.178;2023-06-10T03:55:56;8.90;94.50
64226;DHT22;50545;56.064;26.178;2023-06-10T03:58:24;9.00;94.20
64226;DHT22;50545;56.064;26.178;2023-06-10T04:00:52;9.10;94.10
64226;DHT22;50545;56.064;26.178;2023-06-10T04:03:19;9.20;94.20
64226;DHT22;50545;56.064;26.178;2023-06-10T04:05:48;9.30;94.20
64226;DHT22;50545;56.064;26.178;2023-06-10T04:08:17;9.40;94.00
64226;DHT22;50545;56.064;26.178;2023-06-10T04:10:44;9.50;93.10
64226;DHT22;50545;56.064;26.178;2023-06-10T04:13:12;9.50;92.80
64226;DHT22;50545;56.064;26.178;2023-06-10T04:15:39;9.60;93.20
64226;DHT22;50545;56.064;26.178;2023-06-10T04:18:07;9.70;92.90
64226;DHT22;50545;56.064;26.178;2023-06-10T04:20:35;9.80;92.90
64226;DHT22;50545;56.064;26.178;2023-06-10T04:23:02;9.90;92.30
64226;DHT22;50545;56.064;26.178;2023-06-10T04:25:30;9.90;91.90
64226;DHT22;50545;56.064;26.178;2023-06-10T04:27:58;10.00;92.00
64226;DHT22;50545;56.064;26.178;2023-06-10T04:30:25;10.10;91.20
64226;DHT22;50545;56.064;26.178;2023-06-10T04:32:52;10.20;92.50
64226;DHT22;50545;56.064;26.178;2023-06-10T04:35:19;10.30;91.60
64226;DHT22;50545;56.064;26.178;2023-06-10T04:37:47;10.40;91.60
64226;DHT22;50545;56.064;26.178;2023-06-10T04:40:14;10.50;91.20
64226;DHT22;50545;56.064;26.178;2023-06-10T04:42:42;10.60;90.30
64226;DHT22;50545;56.064;26.178;2023-06-10T04:45:10;10.60;90.00
64226;DHT22;50545;56.064;26.178;2023-06-10T04:47:38;10.70;90.50
64226;DHT22;50545;56.064;26.178;2023-06-10T04:50:05;10.80;90.60
64226;DHT22;50545;56.064;26.178;2023-06-10T04:52:33;11.00;90.00
64226;DHT22;50545;56.064;26.178;2023-06-10T04:55:00;11.10;90.50
64226;DHT22;50545;56.064;26.178;2023-06-10T04:57:28;11.20;88.90
64226;DHT22;50545;56.064;26.178;2023-06-10T04:59:55;11.30;89.80
64226;DHT22;50545;56.064;26.178;2023-06-10T05:02:22;11.40;90.40
64226;DHT22;50545;56.064;26.178;2023-06-10T05:04:50;11.60;88.10
64226;DHT22;50545;56.064;26.178;2023-06-10T05:07:17;11.70;87.70
64226;DHT22;50545;56.064;26.178;2023-06-10T05:09:44;11.80;87.60
64226;DHT22;50545;56.064;26.178;2023-06-10T05:12:12;11.90;86.20
64226;DHT22;50545;56.064;26.178;2023-06-10T05:14:39;12.00;86.40
64226;DHT22;50545;56.064;26.178;2023-06-10T05:17:07;12.10;85.90
64226;DHT22;50545;56.064;26.178;2023-06-10T05:19:34;12.20;84.00
64226;DHT22;50545;56.064;26.178;2023-06-10T05:22:03;12.30;82.30
64226;DHT22;50545;56.064;26.178;2023-06-10T05:24:30;12.40;82.90
64226;DHT22;50545;56.064;26.178;2023-06-10T05:26:57;12.60;85.40
64226;DHT22;50545;56.064;26.178;2023-06-10T05:29:24;12.70;84.00
64226;DHT22;50545;56.064;26.178;2023-06-10T05:31:52;12.80;83.10
64226;DHT22;50545;56.064;26.178;2023-06-10T05:34:20;13.00;78.50
64226;DHT22;50545;56.064;26.178;2023-06-10T05:36:47;13.10;79.20
64226;DHT22;50545;56.064;26.178;2023-06-10T05:39:15;13.20;77.70
64226;DHT22;50545;56.064;26.178;2023-06-10T05:41:42;13.20;74.50
64226;DHT22;50545;56.064;26.178;2023-06-10T05:44:10;13.30;74.80
64226;DHT22;50545;56.064;26.178;2023-06-10T05:46:40;13.40;73.70
64226;DHT22;50545;56.064;26.178;2023-06-10T05:49:07;13.50;72.80
64226;DHT22;50545;56.064;26.178;2023-06-10T05:51:34;13.50;72.90
64226;DHT22;50545;56.064;26.178;2023-06-10T05:54:01;13.60;72.60
64226;DHT22;50545;56.064;26.178;2023-06-10T05:56:29;13.70;71.60
64226;DHT22;50545;56.064;26.178;2023-06-10T05:58:56;13.80;72.70
64226;DHT22;50545;56.064;26.178;2023-06-10T06:01:23;13.90;70.50
64226;DHT22;50545;56.064;26.178;2023-06-10T06:03:51;14.00;70.30
64226;DHT22;50545;56.064;26.178;2023-06-10T06:06:18;14.10;67.20
64226;DHT22;50545;56.064;26.178;2023-06-10T06:08:47;14.20;66.50
64226;DHT22;50545;56.064;26.178;2023-06-10T06:11:15;14.20;66.50
64226;DHT22;50545;56.064;26.178;2023-06-10T06:13:42;14.20;66.50
64226;DHT22;50545;56.064;26.178;2023-06-10T06:16:09;14.30;65.20
64226;DHT22;50545;56.064;26.178;2023-06-10T06:18:36;14.40;67.40
64226;DHT22;50545;56.064;26.178;2023-06-10T06:21:04;14.50;65.30
64226;DHT22;50545;56.064;26.178;2023-06-10T06:23:31;14.60;61.70
64226;DHT22;50545;56.064;26.178;2023-06-10T06:25:58;14.70;62.40
64226;DHT22;50545;56.064;26.178;2023-06-10T06:28:25;14.80;63.40
64226;DHT22;50545;56.064;26.178;2023-06-10T06:30:56;14.90;61.40
64226;DHT22;50545;56.064;26.178;2023-06-10T06:33:24;14.90;59.50
64226;DHT22;50545;56.064;26.178;2023-06-10T06:35:53;15.00;60.10
64226;DHT22;50545;56.064;26.178;2023-06-10T06:38:20;15.10;58.80
64226;DHT22;50545;56.064;26.178;2023-06-10T06:40:47;15.10;57.60
64226;DHT22;50545;56.064;26.178;2023-06-10T06:43:14;15.20;58.00
64226;DHT22;50545;56.064;26.178;2023-06-10T06:45:42;15.40;58.80
64226;DHT22;50545;56.064;26.178;2023-06-10T06:48:09;15.40;57.70
64226;DHT22;50545;56.064;26.178;2023-06-10T06:50:36;15.40;54.30
64226;DHT22;50545;56.064;26.178;2023-06-10T06:53:05;15.30;56.10
64226;DHT22;50545;56.064;26.178;2023-06-10T06:55:32;15.30;55.70
64226;DHT22;50545;56.064;26.178;2023-06-10T06:57:59;15.40;58.20
64226;DHT22;50545;56.064;26.178;2023-06-10T07:00:30;15.50;58.90
64226;DHT22;50545;56.064;26.178;2023-06-10T07:02:58;15.60;52.60
64226;DHT22;50545;56.064;26.178;2023-06-10T07:05:25;15.60;54.80
64226;DHT22;50545;56.064;26.178;2023-06-10T07:07:54;15.60;53.50
64226;DHT22;50545;56.064;26.178;2023-06-10T07:10:26;15.70;51.00
64226;DHT22;50545;56.064;26.178;2023-06-10T07:12:53;15.80;51.80
64226;DHT22;50545;56.064;26.178;2023-06-10T07:15:21;15.90;54.50
64226;DHT22;50545;56.064;26.178;2023-06-10T07:17:48;16.10;51.70
64226;DHT22;50545;56.064;26.178;2023-06-10T07:20:15;16.30;52.50
64226;DHT22;50545;56.064;26.178;2023-06-10T07:22:43;16.40;51.90
64226;DHT22;50545;56.064;26.178;2023-06-10T07:25:10;16.50;49.90
64226;DHT22;50545;56.064;26.178;2023-06-10T07:27:38;16.60;49.20
64226;DHT22;50545;56.064;26.178;2023-06-10T07:30:06;16.60;46.70
64226;DHT22;50545;56.064;26.178;2023-06-10T07:32:38;16.50;50.20
64226;DHT22;50545;56.064;26.178;2023-06-10T07:35:09;16.50;49.10
64226;DHT22;50545;56.064;26.178;2023-06-10T07:37:38;16.60;48.20
64226;DHT22;50545;56.064;26.178;2023-06-10T07:40:06;16.60;49.50
64226;DHT22;50545;56.064;26.178;2023-06-10T07:42:34;16.80;50.50
64226;DHT22;50545;56.064;26.178;2023-06-10T07:45:03;16.90;50.20
64226;DHT22;50545;56.064;26.178;2023-06-10T07:47:30;17.00;48.50
64226;DHT22;50545;56.064;26.178;2023-06-10T07:49:58;16.90;45.30
64226;DHT22;50545;56.064;26.178;2023-06-10T07:52:25;16.60;45.50
64226;DHT22;50545;56.064;26.178;2023-06-10T07:54:53;16.50;48.00
64226;DHT22;50545;56.064;26.178;2023-06-10T07:57:20;16.40;46.90
64226;DHT22;50545;56.064;26.178;2023-06-10T07:59:47;16.20;46.60
64226;DHT22;50545;56.064;26.178;2023-06-10T08:02:15;16.10;48.30
64226;DHT22;50545;56.064;26.178;2023-06-10T08:04:43;16.30;49.90
64226;DHT22;50545;56.064;26.178;2023-06-10T08:07:10;16.50;47.70
64226;DHT22;50545;56.064;26.178;2023-06-10T08:09:37;16.60;44.20
64226;DHT22;50545;56.064;26.178;2023-06-10T08:12:05;16.50;43.80
64226;DHT22;50545;56.064;26.178;2023-06-10T08:14:32;16.40;46.90
64226;DHT22;50545;56.064;26.178;2023-06-10T08:16:59;16.50;47.30
64226;DHT22;50545;56.064;26.178;2023-06-10T08:19:27;16.70;51.30
64226;DHT22;50545;56.064;26.178;2023-06-10T08:21:54;17.00;48.50
64226;DHT22;50545;56.064;26.178;2023-06-10T08:24:21;17.30;48.40
64226;DHT22;50545;56.064;26.178;2023-06-10T08:26:49;17.60;47.80
64226;DHT22;50545;56.064;26.178;2023-06-10T08:29:16;17.80;47.80
64226;DHT22;50545;56.064;26.178;2023-06-10T08:31:44;18.00;46.20
64226;DHT22;50545;56.064;26.178;2023-06-10T08:34:11;18.10;44.60
64226;DHT22;50545;56.064;26.178;2023-06-10T08:36:39;18.10;46.60
64226;DHT22;50545;56.064;26.178;2023-06-10T08:39:06;18.00;44.20
64226;DHT22;50545;56.064;26.178;2023-06-10T08:41:36;17.90;44.60
64226;DHT22;50545;56.064;26.178;2023-06-10T08:44:16;17.80;46.40
64226;DHT22;50545;56.064;26.178;2023-06-10T08:46:46;17.80;44.60
64226;DHT22;50545;56.064;26.178;2023-06-10T08:49:18;17.60;43.30
64226;DHT22;50545;56.064;26.178;2023-06-10T08:51:50;17.50;44.90
64226;DHT22;50545;56.064;26.178;2023-06-10T08:54:22;17.30;44.10
64226;DHT22;50545;56.064;26.178;2023-06-10T08:56:55;17.30;45.00
64226;DHT22;50545;56.064;26.178;2023-06-10T08:59:22;17.10;43.60
64226;DHT22;50545;56.064;26.178;2023-06-10T09:01:51;16.90;44.70
64226;DHT22;50545;56.064;26.178;2023-06-10T09:04:19;16.80;43.20
64226;DHT22;50545;56.064;26.178;2023-06-10T09:06:49;17.00;49.30
64226;DHT22;50545;56.064;26.178;2023-06-10T09:09:17;17.30;44.70
64226;DHT22;50545;56.064;26.178;2023-06-10T09:11:46;17.60;46.20
64226;DHT22;50545;56.064;26.178;2023-06-10T09:14:14;17.90;46.20
64226;DHT22;50545;56.064;26.178;2023-06-10T09:16:42;18.10;46.00
64226;DHT22;50545;56.064;26.178;2023-06-10T09:19:11;18.30;45.00
64226;DHT22;50545;56.064;26.178;2023-06-10T09:21:38;18.60;44.90
64226;DHT22;50545;56.064;26.178;2023-06-10T09:24:05;18.80;44.00
64226;DHT22;50545;56.064;26.178;2023-06-10T09:26:33;19.00;44.20
64226;DHT22;50545;56.064;26.178;2023-06-10T09:29:07;19.20;43.20
64226;DHT22;50545;56.064;26.178;2023-06-10T09:31:39;19.30;44.40
64226;DHT22;50545;56.064;26.178;2023-06-10T09:34:13;19.10;38.00
64226;DHT22;50545;56.064;26.178;2023-06-10T09:36:42;18.90;42.70
64226;DHT22;50545;56.064;26.178;2023-06-10T09:39:17;19.00;42.60
64226;DHT22;50545;56.064;26.178;2023-06-10T09:41:45;19.00;39.20
64226;DHT22;50545;56.064;26.178;2023-06-10T09:44:18;18.90;42.80
64226;DHT22;50545;56.064;26.178;2023-06-10T09:46:49;19.10;43.20
64226;DHT22;50545;56.064;26.178;2023-06-10T09:49:17;19.30;43.00
64226;DHT22;50545;56.064;26.178;2023-06-10T09:51:57;19.30;39.30
64226;DHT22;50545;56.064;26.178;2023-06-10T09:54:31;19.10;38.30
64226;DHT22;50545;56.064;26.178;2023-06-10T09:56:59;18.90;39.80
64226;DHT22;50545;56.064;26.178;2023-06-10T09:59:29;18.70;42.60
64226;DHT22;50545;56.064;26.178;2023-06-10T10:02:01;18.70;39.40
64226;DHT22;50545;56.064;26.178;2023-06-10T10:04:29;18.60;41.60
64226;DHT22;50545;56.064;26.178;2023-06-10T10:06:56;18.50;40.20
64226;DHT22;50545;56.064;26.178;2023-06-10T10:09:26;18.40;41.90
64226;DHT22;50545;56.064;26.178;2023-06-10T10:11:54;18.40;39.50
64226;DHT22;50545;56.064;26.178;2023-06-10T10:14:22;18.10;40.30
64226;DHT22;50545;56.064;26.178;2023-06-10T10:16:51;18.10;42.50
64226;DHT22;50545;56.064;26.178;2023-06-10T10:19:27;18.40;42.60
64226;DHT22;50545;56.064;26.178;2023-06-10T10:22:01;18.80;41.90
64226;DHT22;50545;56.064;26.178;2023-06-10T10:24:35;19.20;39.70
64226;DHT22;50545;56.064;26.178;2023-06-10T10:27:11;19.50;40.70
64226;DHT22;50545;56.064;26.178;2023-06-10T10:29:41;19.70;40.30
64226;DHT22;50545;56.064;26.178;2023-06-10T10:32:13;19.50;37.80
64226;DHT22;50545;56.064;26.178;2023-06-10T10:34:49;19.20;38.80
64226;DHT22;50545;56.064;26.178;2023-06-10T10:37:20;19.10;39.50
64226;DHT22;50545;56.064;26.178;2023-06-10T10:39:47;19.40;38.90
64226;DHT22;50545;56.064;26.178;2023-06-10T10:42:15;19.40;38.10
64226;DHT22;50545;56.064;26.178;2023-06-10T10:44:44;19.30;37.60
64226;DHT22;50545;56.064;26.178;2023-06-10T10:47:12;19.40;38.20
64226;DHT22;50545;56.064;26.178;2023-06-10T10:49:43;19.70;41.30
64226;DHT22;50545;56.064;26.178;2023-06-10T10:52:12;20.00;39.20
64226;DHT22;50545;56.064;26.178;2023-06-10T10:54:44;20.10;38.80
64226;DHT22;50545;56.064;26.178;2023-06-10T10:59:56;20.30;38.70
64226;DHT22;50545;56.064;26.178;2023-06-10T11:05:07;20.30;39.10
64226;DHT22;50545;56.064;26.178;2023-06-10T11:07:35;20.30;40.10
64226;DHT22;50545;56.064;26.178;2023-06-10T11:10:07;20.50;41.00
64226;DHT22;50545;56.064;26.178;2023-06-10T11:15:13;20.20;38.70
64226;DHT22;50545;56.064;26.178;2023-06-10T11:31:22;19.40;38.40
64226;DHT22;50545;56.064;26.178;2023-06-10T11:33:56;19.50;38.80
64226;DHT22;50545;56.064;26.178;2023-06-10T11:36:25;19.60;39.80
64226;DHT22;50545;56.064;26.178;2023-06-10T11:38:57;19.70;38.50
64226;DHT22;50545;56.064;26.178;2023-06-10T11:41:25;19.70;42.10
64226;DHT22;50545;56.064;26.178;2023-06-10T11:43:54;20.00;40.90
64226;DHT22;50545;56.064;26.178;2023-06-10T11:46:24;20.00;38.20
64226;DHT22;50545;56.064;26.178;2023-06-10T11:48:56;19.90;38.30
64226;DHT22;50545;56.064;26.178;2023-06-10T11:51:29;19.80;39.30
64226;DHT22;50545;56.064;26.178;2023-06-10T11:53:56;19.80;39.70
64226;DHT22;50545;56.064;26.178;2023-06-10T11:56:28;19.90;37.50
64226;DHT22;50545;56.064;26.178;2023-06-10T12:01:42;20.00;39.50
64226;DHT22;50545;56.064;26.178;2023-06-10T12:04:13;20.00;39.70
64226;DHT22;50545;56.064;26.178;2023-06-10T12:06:41;20.10;36.70
64226;DHT22;50545;56.064;26.178;2023-06-10T12:09:19;20.00;38.70
64226;DHT22;50545;56.064;26.178;2023-06-10T12:14:56;20.40;39.30
64226;DHT22;50545;56.064;26.178;2023-06-10T12:20:03;21.10;38.20
64226;DHT22;50545;56.064;26.178;2023-06-10T12:22:44;20.90;35.50
64226;DHT22;50545;56.064;26.178;2023-06-10T12:25:11;20.60;36.50
64226;DHT22;50545;56.064;26.178;2023-06-10T12:27:49;20.60;35.60
64226;DHT22;50545;56.064;26.178;2023-06-10T12:30:20;20.50;39.40
64226;DHT22;50545;56.064;26.178;2023-06-10T12:32:48;20.70;39.10
64226;DHT22;50545;56.064;26.178;2023-06-10T12:35:20;21.00;37.40
64226;DHT22;50545;56.064;26.178;2023-06-10T12:38:04;21.30;37.20
64226;DHT22;50545;56.064;26.178;2023-06-10T12:40:37;21.50;35.80
64226;DHT22;50545;56.064;26.178;2023-06-10T12:43:07;21.50;36.70
64226;DHT22;50545;56.064;26.178;2023-06-10T12:45:36;21.50;38.70
64226;DHT22;50545;56.064;26.178;2023-06-10T12:48:11;21.70;40.10
64226;DHT22;50545;56.064;26.178;2023-06-10T12:50:41;21.90;36.20
64226;DHT22;50545;56.064;26.178;2023-06-10T12:53:10;21.90;36.30
64226;DHT22;50545;56.064;26.178;2023-06-10T12:55:40;22.00;37.30
64226;DHT22;50545;56.064;26.178;2023-06-10T12:58:08;22.30;37.20
64226;DHT22;50545;56.064;26.178;2023-06-10T13:00:35;22.30;35.90
64226;DHT22;50545;56.064;26.178;2023-06-10T13:03:03;22.20;37.00
64226;DHT22;50545;56.064;26.178;2023-06-10T13:05:35;22.30;35.60
64226;DHT22;50545;56.064;26.178;2023-06-10T13:08:08;22.40;36.80
64226;DHT22;50545;56.064;26.178;2023-06-10T13:10:37;22.60;35.80
64226;DHT22;50545;56.064;26.178;2023-06-10T13:13:04;22.70;34.10
64226;DHT22;50545;56.064;26.178;2023-06-10T13:15:34;22.40;34.90
64226;DHT22;50545;56.064;26.178;2023-06-10T13:18:11;22.00;33.90
64226;DHT22;50545;56.064;26.178;2023-06-10T13:20:39;21.60;35.50
64226;DHT22;50545;56.064;26.178;2023-06-10T13:23:06;21.50;37.20
64226;DHT22;50545;56.064;26.178;2023-06-10T13:25:33;21.60;34.70
64226;DHT22;50545;56.064;26.178;2023-06-10T13:28:01;21.60;34.80
64226;DHT22;50545;56.064;26.178;2023-06-10T13:30:28;22.00;35.20
64226;DHT22;50545;56.064;26.178;2023-06-10T13:32:55;21.80;36.80
64226;DHT22;50545;56.064;26.178;2023-06-10T13:35:22;21.80;35.00
64226;DHT22;50545;56.064;26.178;2023-06-10T13:37:50;21.80;34.60
64226;DHT22;50545;56.064;26.178;2023-06-10T13:40:17;21.90;36.30
64226;DHT22;50545;56.064;26.178;2023-06-10T13:42:46;21.90;34.60
64226;DHT22;50545;56.064;26.178;2023-06-10T13:45:18;21.80;39.00
64226;DHT22;50545;56.064;26.178;2023-06-10T13:47:45;22.00;35.60
64226;DHT22;50545;56.064;26.178;2023-06-10T13:50:12;22.10;35.80
64226;DHT22;50545;56.064;26.178;2023-06-10T13:52:40;22.30;34.30
64226;DHT22;50545;56.064;26.178;2023-06-10T13:55:08;22.70;34.20
64226;DHT22;50545;56.064;26.178;2023-06-10T13:57:36;22.70;34.60
64226;DHT22;50545;56.064;26.178;2023-06-10T14:00:04;22.60;33.10
64226;DHT22;50545;56.064;26.178;2023-06-10T14:02:31;22.60;33.90
64226;DHT22;50545;56.064;26.178;2023-06-10T14:04:59;22.60;35.50
64226;DHT22;50545;56.064;26.178;2023-06-10T14:07:26;22.50;32.80
64226;DHT22;50545;56.064;26.178;2023-06-10T14:09:54;22.60;36.10
64226;DHT22;50545;56.064;26.178;2023-06-10T14:12:21;22.90;34.10
64226;DHT22;50545;56.064;26.178;2023-06-10T14:14:49;23.30;32.50
64226;DHT22;50545;56.064;26.178;2023-06-10T14:17:16;23.20;34.00
64226;DHT22;50545;56.064;26.178;2023-06-10T14:19:43;23.20;33.90
64226;DHT22;50545;56.064;26.178;2023-06-10T14:22:10;23.60;33.40
64226;DHT22;50545;56.064;26.178;2023-06-10T14:24:38;23.30;32.10
64226;DHT22;50545;56.064;26.178;2023-06-10T14:27:05;23.30;36.40
64226;DHT22;50545;56.064;26.178;2023-06-10T14:29:33;23.40;32.70
64226;DHT22;50545;56.064;26.178;2023-06-10T14:32:00;23.60;33.30
64226;DHT22;50545;56.064;26.178;2023-06-10T14:34:28;23.80;32.70
64226;DHT22;50545;56.064;26.178;2023-06-10T14:37:00;23.70;31.70
64226;DHT22;50545;56.064;26.178;2023-06-10T14:39:27;23.50;31.90
64226;DHT22;50545;56.064;26.178;2023-06-10T14:41:55;23.40;32.10
64226;DHT22;50545;56.064;26.178;2023-06-10T14:44:22;23.30;31.40
64226;DHT22;50545;56.064;26.178;2023-06-10T14:46:49;22.90;32.90
64226;DHT22;50545;56.064;26.178;2023-06-10T14:49:16;23.00;34.20
64226;DHT22;50545;56.064;26.178;2023-06-10T14:51:44;23.30;33.50
64226;DHT22;50545;56.064;26.178;2023-06-10T14:54:12;23.60;31.70
64226;DHT22;50545;56.064;26.178;2023-06-10T14:56:39;23.50;32.90
64226;DHT22;50545;56.064;26.178;2023-06-10T14:59:06;23.60;33.00
64226;DHT22;50545;56.064;26.178;2023-06-10T15:01:33;23.50;31.10
64226;DHT22;50545;56.064;26.178;2023-06-10T15:04:01;23.10;30.30
64226;DHT22;50545;56.064;26.178;2023-06-10T15:06:28;22.80;31.90
64226;DHT22;50545;56.064;26.178;2023-06-10T15:08:56;23.10;33.10
64226;DHT22;50545;56.064;26.178;2023-06-10T15:11:23;23.40;32.20
64226;DHT22;50545;56.064;26.178;2023-06-10T15:13:50;23.50;31.40
64226;DHT22;50545;56.064;26.178;2023-06-10T15:16:17;23.40;32.80
64226;DHT22;50545;56.064;26.178;2023-06-10T15:18:45;23.30;32.80
64226;DHT22;50545;56.064;26.178;2023-06-10T15:21:12;23.30;32.80
64226;DHT22;50545;56.064;26.178;2023-06-10T15:23:40;23.40;32.80
64226;DHT22;50545;56.064;26.178;2023-06-10T15:26:07;23.90;32.90
64226;DHT22;50545;56.064;26.178;2023-06-10T15:28:35;24.30;33.10
64226;DHT22;50545;56.064;26.178;2023-06-10T15:31:02;24.60;32.60
64226;DHT22;50545;56.064;26.178;2023-06-10T15:33:29;24.60;31.30
64226;DHT22;50545;56.064;26.178;2023-06-10T15:35:56;24.40;31.60
64226;DHT22;50545;56.064;26.178;2023-06-10T15:38:24;24.50;32.50
64226;DHT22;50545;56.064;26.178;2023-06-10T15:40:51;24.50;31.60
64226;DHT22;50545;56.064;26.178;2023-06-10T15:43:18;24.50;32.00
64226;DHT22;50545;56.064;26.178;2023-06-10T15:45:45;24.40;30.60
64226;DHT22;50545;56.064;26.178;2023-06-10T15:48:12;24.00;31.20
64226;DHT22;50545;56.064;26.178;2023-06-10T15:50:40;24.00;32.30
64226;DHT22;50545;56.064;26.178;2023-06-10T15:53:07;23.90;30.90
64226;DHT22;50545;56.064;26.178;2023-06-10T15:55:34;23.90;32.00
64226;DHT22;50545;56.064;26.178;2023-06-10T15:58:01;23.90;32.30
64226;DHT22;50545;56.064;26.178;2023-06-10T16:00:30;23.40;32.90
64226;DHT22;50545;56.064;26.178;2023-06-10T16:02:57;23.30;33.60
64226;DHT22;50545;56.064;26.178;2023-06-10T16:05:25;23.10;34.60
64226;DHT22;50545;56.064;26.178;2023-06-10T16:07:52;22.90;34.30